logo
Search for airport 
image banner adimage banner adimage banner ad
image banner ad

FAAP - Aviators Paradise

Located in Ifafi, South Africa

ICAO - , IATA -

Data provided by Airmate  

General information

Coordinates: S25°41'38" E27°46'57"
Elevation is 5594 feet MSL.
 
View others Airports in Mpumalanga

Operational data

Special qualification required
Current time UTC:
Current local time:
Weather at : FALA - Lanseria International ( 31 km )
METAR: FALA 181001Z 34005KT 290V040 9999 BKN035 21/10 Q1028 NOSIG
TAF: TAF FALA 180400Z 1806/1906 VRB03KT CAVOK TX23/1812Z TN12/1904Z
View NOTAMs / SUP AIP / TFR affecting this airport [VIEW]
Communications frequencies: [VIEW]

Runways:

RWY identifierQFULength (ft)Width (ft)SurfaceLDA (ft)
0300UNK
2100UNK

Airport contact information

Address: Ifafi South Africa

Satellite view of FAAP